Mercer, Missouri
Current Conditions -  °F | °C
As of 2:53 AM on Friday 28 Nov 2014 (Local Time) from KLWD Reporting Station
Clear Clear  
Wind Chill: 13°   Ceiling: Unl
Heat Index: 24°   Visibility: 10mi
Dew Point: 20°   Wind: 12mph
Humidity: 84%   Direction: 150°SSE
Pressure: 30.13"   Gusts: 18mph
Location:  40.51°N, 93.53°W
Report Text: KLWD 280853Z AUTO 15010G16KT 10SM CLR M04/M07 A3013 RMK AO2 SLP219 T10441067 56042
Loading
Personal Weather Stations






























Interactive Weather Map New forecast layout! Learn more

10-Day Weather Forecast

Advertisements
Track Severe Weather on mobile